Time;durP1;ratioP1;P1;durP2;ratioP2;P2;SDS_P1;SDS_P2;PMS_P1;PMS_P2;Temp;Humidity;BMP_temperature;BMP_pressure;BME280_temperature;BME280_humidity;BME280_pressure;Samples;Min_cycle;Max_cycle;Signal;HPM_P1;HPM_P2
2022/09/17 00:00:16;;;;;;;14.07;3.38;;;25.60;77.60;;;;;;5036097;28;20071;-70
2022/09/17 00:02:44;;;;;;;11.70;3.13;;;25.60;77.60;;;;;;5036016;28;20053;-72
2022/09/17 00:05:11;;;;;;;12.48;3.53;;;25.60;77.60;;;;;;5035902;28;20033;-71
2022/09/17 00:07:36;;;;;;;10.40;3.20;;;25.60;77.80;;;;;;5035780;28;20045;-71
2022/09/17 00:10:03;;;;;;;10.13;3.33;;;25.60;77.50;;;;;;5018042;28;20032;-71
2022/09/17 00:12:31;;;;;;;12.18;3.53;;;25.60;77.50;;;;;;5035535;28;20064;-71
2022/09/17 00:14:56;;;;;;;11.23;3.08;;;25.60;77.30;;;;;;5035579;28;20474;-72
2022/09/17 00:17:22;;;;;;;13.48;4.72;;;25.60;77.50;;;;;;5035613;28;20108;-71
2022/09/17 00:19:49;;;;;;;8.25;2.60;;;25.60;77.30;;;;;;5035751;28;20017;-72
2022/09/17 00:22:14;;;;;;;15.00;3.90;;;25.60;77.30;;;;;;5035537;28;20121;-72
2022/09/17 00:24:40;;;;;;;11.55;3.40;;;25.50;77.20;;;;;;5035468;28;20442;-70
2022/09/17 00:27:06;;;;;;;11.52;3.80;;;25.50;77.40;;;;;;5035639;28;20026;-75
2022/09/17 00:29:32;;;;;;;14.40;4.10;;;25.50;77.30;;;;;;5035469;28;20057;-74
2022/09/17 00:31:58;;;;;;;14.75;4.00;;;25.50;77.20;;;;;;5035311;28;20029;-74
2022/09/17 00:34:23;;;;;;;9.55;3.55;;;25.50;77.20;;;;;;5035332;28;20037;-74
2022/09/17 00:36:49;;;;;;;16.13;4.30;;;25.50;77.20;;;;;;5035338;28;20068;-75
2022/09/17 00:39:15;;;;;;;14.63;3.90;;;25.50;77.20;;;;;;5035236;28;20025;-73
2022/09/17 00:41:42;;;;;;;10.50;3.45;;;25.50;77.20;;;;;;5035317;28;20112;-75
2022/09/17 00:44:47;;;;;;;11.07;4.20;;;25.50;76.70;;;;;;5017346;28;20041;-73
2022/09/17 00:47:22;;;;;;;16.92;4.97;;;25.50;77.30;;;;;;5035000;28;20029;-75
2022/09/17 00:50:01;;;;;;;12.82;4.03;;;25.50;77.00;;;;;;5035004;28;20032;-73
2022/09/17 00:52:33;;;;;;;14.57;4.07;;;25.50;77.10;;;;;;5035001;28;20037;-74
2022/09/17 00:55:15;;;;;;;16.55;4.03;;;25.50;77.10;;;;;;5034817;28;20053;-71
2022/09/17 00:57:41;;;;;;;12.15;4.55;;;25.50;76.80;;;;;;5034787;28;20034;-73
2022/09/17 01:00:08;;;;;;;12.23;3.95;;;25.40;76.80;;;;;;5034544;28;20432;-69
2022/09/17 01:02:34;;;;;;;12.55;4.50;;;25.40;76.70;;;;;;5034578;28;20112;-70
2022/09/17 01:04:59;;;;;;;12.93;4.45;;;25.40;76.70;;;;;;5034534;28;20109;-70
2022/09/17 01:07:54;;;;;;;14.93;4.95;;;25.40;76.70;;;;;;5034647;28;20045;-70
2022/09/17 01:11:03;;;;;;;14.85;4.68;;;25.40;76.40;;;;;;5033184;28;20033;-70
2022/09/17 01:13:42;;;;;;;13.57;4.35;;;25.40;75.80;;;;;;5034294;28;20053;-71
2022/09/17 01:16:08;;;;;;;12.35;4.13;;;25.40;75.60;;;;;;5034454;28;20339;-70
2022/09/17 01:18:43;;;;;;;13.07;5.10;;;25.40;75.70;;;;;;5034325;28;20047;-70
2022/09/17 01:21:32;;;;;;;11.75;4.20;;;25.30;75.70;;;;;;5034401;28;20512;-70
2022/09/17 01:24:04;;;;;;;16.83;4.85;;;25.40;75.40;;;;;;5034229;28;20033;-70
2022/09/17 01:27:05;;;;;;;14.13;4.47;;;25.30;74.90;;;;;;5034388;28;20067;-71
2022/09/17 01:29:44;;;;;;;12.85;4.55;;;25.30;74.60;;;;;;5034168;28;20037;-69
2022/09/17 01:32:31;;;;;;;17.38;4.85;;;25.30;74.60;;;;;;5034068;28;20034;-71
2022/09/17 01:35:20;;;;;;;14.90;5.03;;;25.30;74.20;;;;;;5033864;28;20045;-72
2022/09/17 01:38:03;;;;;;;12.98;4.65;;;25.20;73.80;;;;;;5033981;28;20029;-70
2022/09/17 01:40:36;;;;;;;;;;;25.30;73.50;;;;;;5034551;28;20020;-70
2022/09/17 01:43:01;;;;;;;12.48;5.05;;;25.20;73.90;;;;;;5033865;28;19909;-70
2022/09/17 01:45:37;;;;;;;15.25;5.40;;;25.20;74.20;;;;;;5033699;28;20052;-69
2022/09/17 01:48:38;;;;;;;14.90;4.93;;;25.10;73.60;;;;;;5017093;28;20096;-69
2022/09/17 01:51:07;;;;;;;11.98;4.38;;;25.10;73.60;;;;;;5024713;28;20033;-69
2022/09/17 01:53:50;;;;;;;19.52;4.95;;;25.20;74.00;;;;;;5033610;28;20030;-71
2022/09/17 01:56:23;;;;;;;15.15;4.60;;;25.10;73.30;;;;;;5033600;28;20022;-70
2022/09/17 01:59:12;;;;;;;;;;;25.10;73.60;;;;;;5034086;28;20021;-70
2022/09/17 02:01:40;;;;;;;17.75;5.20;;;25.10;73.40;;;;;;5022794;28;19905;-70
2022/09/17 02:04:27;;;;;;;14.25;4.32;;;25.10;73.90;;;;;;5033446;28;20052;-72
2022/09/17 02:06:59;;;;;;;20.67;4.93;;;25.00;73.70;;;;;;5033236;28;20478;-70
2022/09/17 02:09:45;;;;;;;16.02;4.97;;;25.00;73.90;;;;;;5033337;28;20076;-72
2022/09/17 02:12:17;;;;;;;13.82;4.70;;;25.00;74.00;;;;;;5015504;28;20486;-71
2022/09/17 02:14:52;;;;;;;14.77;4.32;;;25.10;74.10;;;;;;5033483;28;20017;-70
2022/09/17 02:17:41;;;;;;;13.20;4.53;;;25.00;74.20;;;;;;5033277;28;20080;-71
2022/09/17 02:20:08;;;;;;;15.20;5.00;;;25.10;74.40;;;;;;5033013;28;20093;-71
2022/09/17 02:22:44;;;;;;;16.75;4.82;;;25.10;74.40;;;;;;5033222;28;20037;-71
2022/09/17 02:25:32;;;;;;;12.68;5.10;;;25.00;74.10;;;;;;5033111;28;20028;-70
2022/09/17 02:28:06;;;;;;;13.70;4.20;;;25.00;74.10;;;;;;5033130;28;20017;-71
2022/09/17 02:30:31;;;;;;;15.07;4.82;;;25.00;73.60;;;;;;5032997;28;20115;-71
2022/09/17 02:32:58;;;;;;;11.18;4.53;;;25.00;74.30;;;;;;5015060;28;20073;-70
2022/09/17 02:35:24;;;;;;;14.90;4.13;;;24.90;74.10;;;;;;5032833;28;20029;-70
2022/09/17 02:37:52;;;;;;;14.32;4.50;;;24.90;74.30;;;;;;5032898;28;20095;-69
2022/09/17 02:40:22;;;;;;;13.55;4.60;;;24.90;74.40;;;;;;5032967;28;20083;-70
2022/09/17 02:43:06;;;;;;;13.82;4.80;;;24.90;74.50;;;;;;5032971;28;20033;-70
2022/09/17 02:45:45;;;;;;;18.92;5.57;;;24.80;74.50;;;;;;5032860;28;20034;-70
2022/09/17 02:48:27;;;;;;;16.38;4.43;;;24.90;74.50;;;;;;5032943;28;20112;-69
2022/09/17 02:51:22;;;;;;;15.32;5.00;;;24.90;74.50;;;;;;5032797;28;20293;-70
2022/09/17 02:54:21;;;;;;;19.42;5.28;;;24.90;74.40;;;;;;5032800;28;20402;-70
2022/09/17 02:56:56;;;;;;;10.65;4.00;;;25.00;74.40;;;;;;5032589;28;20076;-71
2022/09/17 02:59:26;;;;;;;12.25;4.13;;;25.00;74.50;;;;;;5032742;28;20078;-70
2022/09/17 03:02:01;;;;;;;11.90;4.40;;;25.00;74.50;;;;;;5032804;28;20025;-70
2022/09/17 03:04:28;;;;;;;13.23;4.40;;;25.10;74.40;;;;;;5032529;28;20105;-69
2022/09/17 03:06:55;;;;;;;11.73;4.25;;;25.00;74.10;;;;;;5032281;28;20195;-70
2022/09/17 03:09:21;;;;;;;13.15;4.55;;;25.00;74.20;;;;;;5032500;28;20445;-70
2022/09/17 03:11:47;;;;;;;14.93;4.40;;;25.00;74.00;;;;;;5032615;28;20068;-71
2022/09/17 03:14:12;;;;;;;12.93;4.10;;;25.10;74.00;;;;;;5032530;28;20032;-70
2022/09/17 03:16:38;;;;;;;16.50;5.03;;;25.10;73.90;;;;;;5032730;28;20378;-70
2022/09/17 03:19:04;;;;;;;15.32;4.13;;;25.10;73.70;;;;;;5032700;28;20075;-69
2022/09/17 03:21:30;;;;;;;17.25;5.13;;;25.20;73.80;;;;;;5014807;28;20021;-70
2022/09/17 03:23:59;;;;;;;13.18;4.68;;;25.10;73.50;;;;;;5032466;28;20109;-70
2022/09/17 03:26:26;;;;;;;14.35;4.18;;;25.20;73.80;;;;;;5032528;28;20028;-70
2022/09/17 03:28:51;;;;;;;13.93;4.32;;;25.10;73.40;;;;;;5032577;28;20490;-71
2022/09/17 03:31:17;;;;;;;13.88;4.20;;;25.10;73.50;;;;;;5032428;28;20021;-72
2022/09/17 03:33:43;;;;;;;15.15;4.38;;;25.00;73.50;;;;;;5035419;28;20080;-71
2022/09/17 03:36:08;;;;;;;15.27;4.43;;;25.10;73.70;;;;;;5036992;28;20040;-71
2022/09/17 03:38:35;;;;;;;15.15;4.22;;;25.10;73.60;;;;;;5036918;28;20060;-69
2022/09/17 03:41:03;;;;;;;15.27;4.88;;;25.10;73.40;;;;;;5036605;28;20401;-73
2022/09/17 03:43:29;;;;;;;12.75;5.00;;;25.10;73.40;;;;;;5036380;28;20467;-70
2022/09/17 03:45:55;;;;;;;13.65;4.20;;;25.20;73.40;;;;;;5035903;28;20029;-70
2022/09/17 03:48:21;;;;;;;11.60;3.97;;;25.20;73.20;;;;;;5036021;28;20026;-70
2022/09/17 03:50:47;;;;;;;15.73;4.90;;;25.20;73.20;;;;;;5036231;28;20385;-71
2022/09/17 03:53:13;;;;;;;17.27;5.13;;;25.20;73.00;;;;;;5036029;28;20471;-69
2022/09/17 03:55:39;;;;;;;14.50;4.03;;;25.20;72.70;;;;;;5036178;28;20045;-70
2022/09/17 03:58:05;;;;;;;15.38;4.82;;;25.20;72.80;;;;;;5036207;28;20025;-71
2022/09/17 04:00:31;;;;;;;12.60;4.50;;;25.30;72.90;;;;;;5036245;28;20101;-70
2022/09/17 04:02:57;;;;;;;18.50;4.88;;;25.30;72.80;;;;;;5035997;28;20034;-74
2022/09/17 04:05:23;;;;;;;18.35;4.05;;;25.30;72.80;;;;;;5035692;28;20396;-74
2022/09/17 04:07:49;;;;;;;19.85;4.10;;;25.30;72.50;;;;;;5035643;28;20550;-75
2022/09/17 04:10:15;;;;;;;12.18;4.97;;;25.30;72.60;;;;;;5035797;28;20022;-72
2022/09/17 04:12:40;;;;;;;13.98;4.07;;;25.30;72.60;;;;;;5035628;28;20033;-72
2022/09/17 04:15:07;;;;;;;11.88;3.78;;;25.30;71.80;;;;;;5035620;28;20026;-73
2022/09/17 04:17:33;;;;;;;13.45;4.20;;;25.30;71.60;;;;;;5035850;28;20380;-72
2022/09/17 04:19:59;;;;;;;15.60;4.50;;;25.30;71.30;;;;;;5036385;28;20017;-74
2022/09/17 04:22:25;;;;;;;14.55;4.40;;;25.30;71.10;;;;;;5036899;28;20449;-73
2022/09/17 04:24:51;;;;;;;16.08;4.35;;;25.30;71.00;;;;;;5035821;28;20026;-74
2022/09/17 04:27:17;;;;;;;16.75;3.60;;;25.20;70.40;;;;;;5035578;28;20033;-75
2022/09/17 04:29:43;;;;;;;14.77;3.92;;;25.20;70.10;;;;;;5035507;28;20028;-73
2022/09/17 04:32:09;;;;;;;12.43;3.90;;;25.10;69.90;;;;;;5035484;28;20033;-73
2022/09/17 04:34:34;;;;;;;11.25;3.83;;;25.10;69.70;;;;;;5035164;28;20538;-74
2022/09/17 04:37:00;;;;;;;9.02;3.47;;;25.10;69.50;;;;;;5035134;28;20556;-74
2022/09/17 04:39:26;;;;;;;16.17;3.75;;;25.10;70.20;;;;;;5035334;28;20026;-71
2022/09/17 04:41:51;;;;;;;13.75;3.97;;;25.10;69.50;;;;;;5035267;28;20018;-73
2022/09/17 04:44:17;;;;;;;12.57;3.53;;;25.10;69.20;;;;;;5034994;28;20053;-74
2022/09/17 04:46:43;;;;;;;10.98;3.55;;;25.10;68.70;;;;;;5035152;28;20466;-73
2022/09/17 04:49:11;;;;;;;13.63;3.50;;;25.10;68.70;;;;;;5035253;28;20026;-75
2022/09/17 04:51:37;;;;;;;13.00;4.32;;;25.10;68.00;;;;;;5034974;28;20479;-74
2022/09/17 04:54:03;;;;;;;14.00;3.83;;;25.10;68.40;;;;;;5035178;28;20123;-72
2022/09/17 04:56:29;;;;;;;12.52;3.60;;;25.10;67.90;;;;;;5035174;28;20096;-72
2022/09/17 04:58:54;;;;;;;17.50;4.10;;;25.10;67.90;;;;;;5034985;28;20117;-73
2022/09/17 05:01:20;;;;;;;14.70;3.80;;;25.10;67.80;;;;;;5035028;28;20029;-76
2022/09/17 05:03:46;;;;;;;12.95;3.17;;;25.10;67.80;;;;;;5034834;28;20493;-76
2022/09/17 05:06:12;;;;;;;13.45;3.70;;;25.10;68.00;;;;;;5034836;28;20037;-75
2022/09/17 05:08:37;;;;;;;14.25;3.95;;;25.10;68.10;;;;;;5035187;28;20057;-74
2022/09/17 05:11:03;;;;;;;14.43;3.42;;;25.10;68.10;;;;;;5035136;28;20022;-72
2022/09/17 05:13:29;;;;;;;17.25;4.07;;;25.10;68.00;;;;;;5034940;28;20128;-71
2022/09/17 05:15:55;;;;;;;13.77;3.58;;;25.10;67.80;;;;;;5034720;28;20500;-73
2022/09/17 05:18:21;;;;;;;17.80;4.38;;;25.10;67.90;;;;;;5034418;28;20025;-73
2022/09/17 05:20:47;;;;;;;18.55;3.88;;;25.20;67.80;;;;;;5034442;28;20048;-72
2022/09/17 05:23:13;;;;;;;12.85;3.85;;;25.10;67.50;;;;;;5034070;28;20112;-71
2022/09/17 05:25:39;;;;;;;16.27;3.97;;;25.10;67.70;;;;;;5034117;28;20515;-72
2022/09/17 05:28:05;;;;;;;13.70;3.70;;;25.10;67.90;;;;;;5034366;28;20426;-71
2022/09/17 05:30:31;;;;;;;16.70;4.22;;;25.10;68.00;;;;;;5034390;28;20387;-74
2022/09/17 05:33:01;;;;;;;17.10;4.13;;;25.20;67.90;;;;;;5034115;28;20033;-73
2022/09/17 05:35:28;;;;;;;27.05;4.78;;;25.30;68.10;;;;;;5034158;28;20016;-72
2022/09/17 05:38:02;;;;;;;12.63;3.90;;;25.30;67.90;;;;;;5034201;28;20207;-72
2022/09/17 05:40:29;;;;;;;15.98;4.18;;;25.30;67.20;;;;;;5034250;28;20370;-74
2022/09/17 05:42:59;;;;;;;15.93;4.50;;;25.40;67.70;;;;;;5034162;28;20055;-71
2022/09/17 05:45:25;;;;;;;14.10;4.63;;;25.40;67.50;;;;;;5015816;28;20028;-73
2022/09/17 05:47:55;;;;;;;20.15;4.85;;;25.40;67.70;;;;;;5034040;28;20029;-73
2022/09/17 05:50:22;;;;;;;15.63;4.00;;;25.50;67.50;;;;;;5033961;28;20049;-71
2022/09/17 05:52:48;;;;;;;16.98;4.03;;;25.50;68.00;;;;;;5034036;28;20069;-72
2022/09/17 05:55:14;;;;;;;16.52;4.60;;;25.50;67.20;;;;;;5033627;28;20018;-73
2022/09/17 05:57:40;;;;;;;20.65;4.63;;;25.50;67.20;;;;;;5033914;28;20429;-73
2022/09/17 06:00:06;;;;;;;16.35;4.88;;;25.70;66.90;;;;;;5033590;28;20018;-71
2022/09/17 06:02:32;;;;;;;14.63;4.90;;;25.70;66.80;;;;;;5033744;28;20519;-72
2022/09/17 06:05:00;;;;;;;21.50;4.88;;;25.70;66.70;;;;;;5033731;28;20096;-72
2022/09/17 06:07:27;;;;;;;15.50;3.83;;;25.70;66.60;;;;;;5034131;28;20129;-74
2022/09/17 06:09:52;;;;;;;15.50;4.20;;;25.70;67.00;;;;;;5033824;28;20398;-73
2022/09/17 06:12:18;;;;;;;21.92;4.47;;;25.80;66.50;;;;;;5033641;28;20478;-70
2022/09/17 06:14:44;;;;;;;16.70;4.53;;;25.90;66.70;;;;;;5033309;28;20061;-73
2022/09/17 06:17:10;;;;;;;14.88;3.85;;;26.00;66.20;;;;;;5033061;28;20029;-70
2022/09/17 06:19:35;;;;;;;20.88;4.07;;;26.20;65.80;;;;;;5033207;28;20099;-71
2022/09/17 06:22:01;;;;;;;15.52;4.10;;;26.30;65.90;;;;;;5033265;28;20026;-73
2022/09/17 06:24:27;;;;;;;18.65;4.95;;;26.50;65.50;;;;;;5033042;28;20029;-70
2022/09/17 06:26:53;;;;;;;23.20;5.18;;;26.60;65.00;;;;;;5033297;28;20367;-70
2022/09/17 06:29:21;;;;;;;16.73;4.50;;;26.70;64.60;;;;;;5033128;28;20502;-72
2022/09/17 06:31:48;;;;;;;16.13;3.88;;;26.80;64.60;;;;;;5033451;28;20385;-75
2022/09/17 06:34:13;;;;;;;19.70;4.93;;;26.80;64.30;;;;;;5032975;28;20022;-72
2022/09/17 06:36:39;;;;;;;21.92;4.68;;;26.80;64.60;;;;;;5015236;28;20457;-73
2022/09/17 06:39:05;;;;;;;20.35;4.75;;;26.80;64.40;;;;;;5032958;28;20033;-72
2022/09/17 06:41:32;;;;;;;20.60;5.07;;;26.80;64.60;;;;;;5033145;28;20022;-70
2022/09/17 06:43:58;;;;;;;14.15;4.30;;;26.90;64.40;;;;;;5032874;28;20026;-74
2022/09/17 06:46:23;;;;;;;20.33;4.57;;;27.10;64.40;;;;;;5033213;28;20021;-71
2022/09/17 06:48:49;;;;;;;17.63;5.25;;;27.10;64.10;;;;;;5032836;28;20488;-72
2022/09/17 06:51:15;;;;;;;18.02;4.18;;;27.20;63.90;;;;;;5032714;28;20100;-72
2022/09/17 06:53:41;;;;;;;17.27;4.97;;;27.30;63.90;;;;;;5032828;28;20033;-73
2022/09/17 06:56:08;;;;;;;23.40;5.63;;;27.30;63.90;;;;;;5032574;28;20053;-72
2022/09/17 06:58:40;;;;;;;17.25;6.00;;;27.30;63.90;;;;;;5032672;28;20087;-73
2022/09/17 07:01:06;;;;;;;19.63;4.87;;;27.30;63.90;;;;;;5032625;28;20114;-71
2022/09/17 07:03:33;;;;;;;19.88;5.30;;;27.30;64.10;;;;;;5032294;28;20293;-71
2022/09/17 07:05:59;;;;;;;18.70;4.32;;;27.20;64.20;;;;;;5032196;28;20048;-70
2022/09/17 07:08:25;;;;;;;32.10;5.15;;;27.20;64.30;;;;;;5032754;28;20028;-71
2022/09/17 07:10:53;;;;;;;19.20;5.05;;;27.40;63.90;;;;;;5032578;28;20030;-75
2022/09/17 07:13:19;;;;;;;26.17;5.68;;;27.60;63.70;;;;;;5032509;28;20078;-72
2022/09/17 07:15:56;;;;;;;21.35;4.95;;;27.80;63.30;;;;;;5032364;28;20111;-72
2022/09/17 07:18:22;;;;;;;21.30;5.50;;;27.80;62.70;;;;;;5032461;28;20018;-74
2022/09/17 07:20:56;;;;;;;24.50;5.45;;;28.00;62.60;;;;;;5032348;28;20033;-73
2022/09/17 07:23:23;;;;;;;21.63;4.80;;;28.00;62.00;;;;;;5032146;28;20022;-74
2022/09/17 07:26:01;;;;;;;20.33;4.95;;;28.10;62.30;;;;;;5014398;28;20035;-73
2022/09/17 07:28:27;;;;;;;20.40;4.82;;;28.00;61.90;;;;;;5014405;28;20024;-71
2022/09/17 07:30:54;;;;;;;21.05;4.78;;;28.00;61.50;;;;;;5032060;28;20049;-69
2022/09/17 07:33:23;;;;;;;27.58;5.07;;;28.10;61.30;;;;;;5014358;28;20446;-71
2022/09/17 07:35:56;;;;;;;24.48;5.78;;;28.20;61.10;;;;;;5032301;28;20053;-71
2022/09/17 07:38:24;;;;;;;23.25;5.38;;;28.30;61.30;;;;;;5032231;28;20021;-72
2022/09/17 07:41:04;;;;;;;21.25;5.13;;;28.40;60.60;;;;;;5032278;28;20057;-70
2022/09/17 07:43:33;;;;;;;24.83;5.45;;;28.40;60.20;;;;;;5040423;28;20030;-72
2022/09/17 07:46:00;;;;;;;20.40;4.93;;;28.50;60.30;;;;;;5040614;28;20032;-72
2022/09/17 07:48:27;;;;;;;18.48;5.28;;;28.40;59.90;;;;;;5042295;28;20013;-71
2022/09/17 07:50:53;;;;;;;16.80;4.63;;;28.40;59.70;;;;;;5031986;28;20212;-72
2022/09/17 07:53:19;;;;;;;24.25;5.07;;;28.40;59.60;;;;;;5031952;28;20029;-70
2022/09/17 07:55:56;;;;;;;18.27;5.00;;;28.40;59.30;;;;;;5031723;28;20083;-69
2022/09/17 07:58:26;;;;;;;22.42;5.25;;;28.40;59.60;;;;;;5040032;28;20037;-71
2022/09/17 08:00:52;;;;;;;15.65;5.00;;;28.30;59.60;;;;;;5034250;28;20021;-69
2022/09/17 08:03:18;;;;;;;21.98;4.65;;;28.40;59.40;;;;;;5034361;28;20029;-72
2022/09/17 08:05:44;;;;;;;25.38;4.88;;;28.30;59.30;;;;;;5039599;28;20425;-73
2022/09/17 08:08:10;;;;;;;21.48;4.57;;;28.30;59.30;;;;;;5031537;28;20439;-69
2022/09/17 08:10:36;;;;;;;22.13;4.63;;;28.30;59.10;;;;;;5031843;28;20059;-72
2022/09/17 08:13:01;;;;;;;19.67;4.95;;;28.20;58.80;;;;;;5042597;28;20037;-68
2022/09/17 08:15:27;;;;;;;22.95;5.88;;;28.20;58.80;;;;;;5039861;28;20029;-73
2022/09/17 08:17:53;;;;;;;23.05;7.13;;;28.10;58.70;;;;;;5051560;28;20040;-66
2022/09/17 08:20:19;;;;;;;19.77;6.47;;;28.10;58.80;;;;;;5055097;28;20025;-70
2022/09/17 08:22:45;;;;;;;21.25;5.78;;;28.20;59.00;;;;;;5052376;28;20097;-67
2022/09/17 08:25:11;;;;;;;28.15;6.53;;;28.20;58.70;;;;;;5037256;28;20024;-70
2022/09/17 08:27:40;;;;;;;27.05;5.93;;;28.20;58.90;;;;;;5055570;28;20104;-69
2022/09/17 08:30:23;;;;;;;30.23;6.25;;;28.30;59.20;;;;;;5053761;28;20115;-72
2022/09/17 08:32:48;;;;;;;18.92;5.47;;;28.20;58.70;;;;;;5055332;28;20124;-73
2022/09/17 08:35:15;;;;;;;18.92;5.63;;;28.20;58.80;;;;;;5055251;28;20391;-73
2022/09/17 08:37:41;;;;;;;16.08;4.78;;;28.10;58.80;;;;;;5055264;28;20029;-71
2022/09/17 08:40:15;;;;;;;22.48;5.25;;;28.00;58.60;;;;;;5055025;28;20029;-75
2022/09/17 08:42:55;;;;;;;18.92;5.22;;;28.00;58.70;;;;;;5055139;28;20033;-71
2022/09/17 08:45:21;;;;;;;18.92;5.30;;;27.90;59.20;;;;;;5037296;28;20021;-73
2022/09/17 08:47:47;;;;;;;23.05;5.85;;;27.90;59.60;;;;;;5054985;28;20104;-72
2022/09/17 08:50:22;;;;;;;23.00;5.85;;;28.00;59.50;;;;;;5057697;28;20065;-67
2022/09/17 08:53:07;;;;;;;26.63;6.68;;;28.10;59.50;;;;;;5056715;28;20083;-68
2022/09/17 08:55:42;;;;;;;20.70;5.38;;;28.20;59.30;;;;;;5056099;28;20033;-71
2022/09/17 08:58:22;;;;;;;27.02;7.35;;;28.30;59.10;;;;;;5055210;28;20104;-68
2022/09/17 09:01:13;;;;;;;20.92;6.28;;;28.40;58.40;;;;;;5054781;28;20036;-67
2022/09/17 09:03:47;;;;;;;24.10;5.43;;;28.40;58.30;;;;;;5054441;28;20025;-69
2022/09/17 09:06:15;;;;;;;23.98;5.70;;;28.30;58.00;;;;;;5054835;28;20053;-78
2022/09/17 09:09:04;;;;;;;21.08;6.45;;;28.20;58.50;;;;;;5043292;28;20033;-68
2022/09/17 09:11:32;;;;;;;20.75;5.80;;;28.10;58.40;;;;;;5034531;28;20025;-70
2022/09/17 09:14:09;;;;;;;20.60;5.72;;;28.20;58.10;;;;;;5034361;28;20041;-68
2022/09/17 09:16:40;;;;;;;18.30;5.22;;;28.20;58.30;;;;;;5034661;28;20477;-67
2022/09/17 09:19:28;;;;;;;19.02;5.53;;;28.40;58.10;;;;;;5034232;28;20441;-69
2022/09/17 09:22:51;;;;;;;23.48;5.65;;;28.50;58.10;;;;;;5034024;28;20040;-70
2022/09/17 09:25:28;;;;;;;21.20;5.75;;;28.70;56.80;;;;;;5011345;28;20057;-69
2022/09/17 09:28:34;;;;;;;21.08;6.10;;;28.80;57.70;;;;;;5034122;28;20130;-68
2022/09/17 09:31:20;;;;;;;28.80;7.50;;;28.90;57.50;;;;;;5033212;28;20110;-71
2022/09/17 09:33:47;;;;;;;26.17;8.07;;;29.00;57.80;;;;;;5033351;28;20041;-77
2022/09/17 09:36:20;;;;;;;25.40;6.50;;;29.10;57.60;;;;;;5033758;28;20517;-73
2022/09/17 09:39:00;;;;;;;26.17;6.65;;;29.00;57.40;;;;;;5033311;28;20109;-70
2022/09/17 09:41:31;;;;;;;30.45;6.78;;;28.90;57.10;;;;;;5033235;28;20075;-71
2022/09/17 09:44:09;;;;;;;26.98;6.35;;;28.80;57.90;;;;;;5033115;28;20041;-69
2022/09/17 09:46:49;;;;;;;27.52;5.65;;;28.90;58.10;;;;;;5015990;28;20105;-75
2022/09/17 09:49:48;;;;;;;34.50;6.97;;;28.90;57.50;;;;;;5032821;28;20386;-69
2022/09/17 09:52:38;;;;;;;21.08;6.35;;;28.80;57.60;;;;;;5025466;28;20041;-78
2022/09/17 09:55:17;;;;;;;28.90;6.35;;;28.80;57.50;;;;;;5032667;28;20087;-72
2022/09/17 09:57:48;;;;;;;25.85;6.75;;;28.80;56.10;;;;;;5032632;28;20029;-79
2022/09/17 10:00:37;;;;;;;28.02;6.97;;;28.70;57.30;;;;;;5014610;28;20020;-71
2022/09/17 10:03:17;;;;;;;30.20;7.57;;;28.60;56.70;;;;;;5032609;28;20033;-75
2022/09/17 10:05:56;;;;;;;34.78;7.97;;;28.50;56.90;;;;;;5032339;28;20029;-73
2022/09/17 10:08:23;;;;;;;21.58;6.38;;;28.40;56.00;;;;;;5014664;28;20115;-69
2022/09/17 10:11:25;;;;;;;25.95;6.90;;;28.30;56.30;;;;;;5032108;28;20034;-68
2022/09/17 10:13:51;;;;;;;23.17;5.85;;;28.20;55.30;;;;;;5031391;28;20459;-69
2022/09/17 10:16:25;;;;;;;21.45;6.55;;;28.10;55.30;;;;;;5032172;28;20032;-77
2022/09/17 10:19:02;;;;;;;21.30;6.05;;;28.10;54.00;;;;;;5032320;28;20025;-70
2022/09/17 10:21:38;;;;;;;23.23;8.73;;;28.10;53.10;;;;;;5032204;28;20025;-76
2022/09/17 10:24:28;;;;;;;28.52;6.68;;;28.10;54.70;;;;;;5032339;28;20071;-79
2022/09/17 10:27:22;;;;;;;26.65;6.57;;;28.10;53.50;;;;;;5017169;28;20029;-76
2022/09/17 10:29:59;;;;;;;29.42;6.55;;;28.10;53.90;;;;;;5030914;28;20112;-70
2022/09/17 10:32:24;;;;;;;29.13;6.68;;;28.10;54.40;;;;;;5032101;28;20059;-76
2022/09/17 10:35:06;;;;;;;27.52;6.88;;;28.10;54.20;;;;;;5032712;28;20386;-70
2022/09/17 10:37:43;;;;;;;26.35;6.15;;;28.10;54.30;;;;;;5032948;28;20040;-76
2022/09/17 10:40:27;;;;;;;26.77;5.53;;;28.10;54.30;;;;;;5032228;28;20032;-71
2022/09/17 10:43:15;;;;;;;26.02;6.35;;;28.10;53.90;;;;;;5032503;28;20425;-73
2022/09/17 10:45:52;;;;;;;37.08;8.40;;;28.10;52.40;;;;;;5033019;28;20044;-73
2022/09/17 10:48:20;;;;;;;23.48;6.30;;;28.20;54.30;;;;;;5033049;28;20044;-74
2022/09/17 10:50:50;;;;;;;28.00;6.97;;;28.20;53.40;;;;;;5032525;28;20049;-74
2022/09/17 10:53:19;;;;;;;29.50;7.22;;;28.20;53.40;;;;;;5032656;28;20456;-72
2022/09/17 10:55:52;;;;;;;25.52;7.10;;;28.10;53.60;;;;;;5032376;28;20075;-73
2022/09/17 10:58:34;;;;;;;23.73;6.43;;;28.20;52.80;;;;;;5029180;28;20034;-75
2022/09/17 11:01:57;;;;;;;22.17;6.65;;;28.40;52.00;;;;;;5024805;28;20036;-72
2022/09/17 11:04:31;;;;;;;24.42;7.07;;;28.40;52.60;;;;;;4952140;29;20027;-70
2022/09/17 11:07:17;;;;;;;26.65;6.32;;;28.40;52.10;;;;;;4951911;29;20058;-70
2022/09/17 11:10:03;;;;;;;26.08;5.95;;;28.50;53.60;;;;;;5005988;28;20033;-71
2022/09/17 11:13:06;;;;;;;16.50;6.55;;;28.70;51.90;;;;;;5031964;28;20033;-75
2022/09/17 11:15:49;;;;;;;26.30;6.95;;;29.00;51.80;;;;;;5031962;28;20022;-73
2022/09/17 11:18:44;;;;;;;32.92;6.57;;;29.00;52.60;;;;;;5032180;28;20029;-71
2022/09/17 11:21:40;;;;;;;32.35;9.00;;;29.10;52.90;;;;;;5033252;28;20394;-72
2022/09/17 11:24:14;;;;;;;27.05;6.10;;;29.20;51.30;;;;;;5051453;28;20036;-69
2022/09/17 11:26:46;;;;;;;29.58;7.07;;;28.90;53.10;;;;;;5051944;28;20428;-75
2022/09/17 11:29:24;;;;;;;21.85;6.68;;;28.70;54.20;;;;;;5051584;28;20021;-72
2022/09/17 11:31:59;;;;;;;32.50;6.50;;;28.90;54.20;;;;;;5056622;28;20032;-71
2022/09/17 11:34:33;;;;;;;26.40;8.00;;;28.90;54.40;;;;;;5058539;28;20037;-74
2022/09/17 11:37:27;;;;;;;29.67;8.00;;;29.00;54.60;;;;;;5053385;28;20017;-78
2022/09/17 11:39:57;;;;;;;32.63;8.23;;;29.00;54.20;;;;;;5034508;28;20045;-70
2022/09/17 11:42:32;;;;;;;28.63;7.82;;;29.00;55.40;;;;;;5017897;28;20028;-70
2022/09/17 11:45:13;;;;;;;25.52;6.38;;;29.00;55.30;;;;;;5011907;28;20056;-70
2022/09/17 11:47:47;;;;;;;31.15;6.95;;;29.10;53.60;;;;;;5023302;28;20100;-71
2022/09/17 11:50:19;;;;;;;29.20;6.90;;;29.00;54.80;;;;;;5049262;28;20021;-70
2022/09/17 11:53:03;;;;;;;31.45;6.70;;;29.00;54.20;;;;;;5051372;28;20048;-77
2022/09/17 11:55:56;;;;;;;28.10;6.72;;;28.80;54.60;;;;;;5042511;28;20025;-74
2022/09/17 11:58:41;;;;;;;23.08;6.05;;;29.00;55.30;;;;;;5024145;28;20021;-73
2022/09/17 12:01:32;;;;;;;27.92;7.10;;;28.90;55.70;;;;;;5026784;28;20017;-73
2022/09/17 12:04:16;;;;;;;33.10;7.63;;;29.10;54.40;;;;;;5024073;28;20131;-75
2022/09/17 12:07:20;;;;;;;28.20;7.13;;;29.20;54.90;;;;;;5035712;28;20089;-73
2022/09/17 12:09:49;;;;;;;;;;;29.30;54.10;;;;;;5035591;28;20068;-77
2022/09/17 12:12:21;;;;;;;30.55;8.77;;;29.40;55.20;;;;;;5035415;28;20362;-71
2022/09/17 12:14:53;;;;;;;29.07;8.43;;;29.50;55.00;;;;;;5035219;28;20059;-71
2022/09/17 12:17:27;;;;;;;27.93;7.00;;;29.50;55.30;;;;;;5035308;28;20390;-71
2022/09/17 12:20:04;;;;;;;34.80;9.13;;;29.40;55.60;;;;;;5034568;28;20037;-74
2022/09/17 12:22:34;;;;;;;29.30;6.90;;;29.30;55.70;;;;;;5035305;28;20018;-74
2022/09/17 12:25:01;;;;;;;35.85;10.68;;;29.20;56.10;;;;;;5035275;28;20485;-71
2022/09/17 12:27:40;;;;;;;21.05;6.55;;;29.00;56.40;;;;;;5035380;28;20039;-72
2022/09/17 12:30:13;;;;;;;29.70;6.50;;;28.80;56.30;;;;;;5035238;28;20124;-69
2022/09/17 12:32:42;;;;;;;30.30;7.10;;;28.80;56.50;;;;;;5035110;28;20091;-73
2022/09/17 12:35:22;;;;;;;30.80;6.60;;;28.80;56.70;;;;;;5034563;28;20091;-76
2022/09/17 12:38:28;;;;;;;44.05;8.38;;;28.90;57.70;;;;;;5037410;28;20425;-74
2022/09/17 12:41:14;;;;;;;37.47;8.02;;;29.00;57.20;;;;;;5036486;28;20032;-80
2022/09/17 12:44:01;;;;;;;31.10;6.75;;;29.20;57.70;;;;;;5036720;28;20033;-76
2022/09/17 12:46:41;;;;;;;28.67;6.80;;;29.40;57.50;;;;;;5036772;28;20022;-79
2022/09/17 12:49:25;;;;;;;26.00;6.53;;;29.60;57.00;;;;;;5034765;28;20035;-78
2022/09/17 12:52:23;;;;;;;36.80;6.70;;;29.70;56.90;;;;;;5037105;28;20060;-74
2022/09/17 12:55:19;;;;;;;36.78;7.47;;;29.70;56.50;;;;;;4968602;28;20073;-77
2022/09/17 12:57:48;;;;;;;25.00;6.63;;;29.90;55.60;;;;;;5022746;28;20022;-75
2022/09/17 13:00:15;;;;;;;20.33;5.80;;;30.00;56.10;;;;;;5022887;28;20041;-75
2022/09/17 13:03:18;;;;;;;22.27;6.00;;;30.10;56.10;;;;;;5031117;28;20061;-75
2022/09/17 13:05:56;;;;;;;21.58;4.95;;;30.20;52.90;;;;;;5024935;28;20079;-75
2022/09/17 13:08:29;;;;;;;24.63;6.25;;;30.30;51.40;;;;;;5035552;28;20481;-77